Time;durP1;ratioP1;P1;durP2;ratioP2;P2;SDS_P1;SDS_P2;PMS_P1;PMS_P2;Temp;Humidity;BMP_temperature;BMP_pressure;BME280_temperature;BME280_humidity;BME280_pressure;Samples;Min_cycle;Max_cycle;Signal;HPM_P1;HPM_P2
2022/08/11 11:41:42;;;;;;;3.13;1.13;;;;;;;;;;5084573;27;20452;-82
2022/08/11 11:44:08;;;;;;;3.08;1.35;;;;;;;;;;5066326;28;20438;-83
2022/08/11 11:46:34;;;;;;;1.98;1.10;;;;;;;;;;5032292;28;20040;-84
2022/08/11 11:49:05;;;;;;;2.38;1.25;;;;;;;;;;5081918;28;20040;-81
2022/08/11 11:51:31;;;;;;;2.95;1.30;;;;;;;;;;5070035;28;20498;-82
2022/08/11 11:53:56;;;;;;;3.28;1.40;;;;;;;;;;5034503;28;20033;-81
2022/08/11 11:56:22;;;;;;;1.98;1.00;;;;;;;;;;5063590;28;20037;-83
2022/08/11 12:01:32;;;;;;;2.70;1.02;;;;;;;;;;5074501;28;20430;-82
2022/08/11 12:03:58;;;;;;;1.42;0.90;;;;;;;;;;5081124;28;20028;-84
2022/08/11 12:06:24;;;;;;;3.03;0.90;;;;;;;;;;5064063;28;20029;-86
2022/08/11 12:08:50;;;;;;;3.97;1.10;;;;;;;;;;5063855;28;20043;-81
2022/08/11 12:14:05;;;;;;;1.83;1.00;;;;;;;;;;5066092;28;20051;-82
2022/08/11 12:16:31;;;;;;;2.28;1.02;;;;;;;;;;5053495;28;20039;-82
2022/08/11 12:18:57;;;;;;;1.98;0.90;;;;;;;;;;5028550;28;20036;-81
2022/08/11 12:21:23;;;;;;;3.33;1.10;;;;;;;;;;5044702;28;20036;-86
2022/08/11 12:29:18;;;;;;;3.28;1.20;;;;;;;;;;5038784;28;20029;-86
2022/08/11 12:31:43;;;;;;;1.92;1.00;;;;;;;;;;5054095;28;20359;-79
2022/08/11 12:34:10;;;;;;;2.97;1.17;;;;;;;;;;5052793;28;20039;-83
2022/08/11 12:36:39;;;;;;;1.25;1.00;;;;;;;;;;5023582;28;20024;-80
2022/08/11 12:39:05;;;;;;;3.00;1.30;;;;;;;;;;5034936;28;20526;-81
2022/08/11 12:46:59;;;;;;;2.75;1.20;;;;;;;;;;5062477;28;20120;-85
2022/08/11 12:52:09;;;;;;;5.00;1.13;;;;;;;;;;5068420;28;20039;-83
2022/08/11 12:54:56;;;;;;;2.20;1.10;;;;;;;;;;5052581;28;20020;-80
2022/08/11 13:05:34;;;;;;;2.97;1.30;;;;;;;;;;5055579;28;20483;-81
2022/08/11 13:07:59;;;;;;;2.20;1.20;;;;;;;;;;5066797;28;20086;-82
2022/08/11 13:13:09;;;;;;;3.20;1.30;;;;;;;;;;5048418;28;20028;-81
2022/08/11 13:15:37;;;;;;;4.15;1.13;;;;;;;;;;5023373;28;20017;-83
2022/08/11 13:18:03;;;;;;;2.22;1.27;;;;;;;;;;5059026;28;20395;-80
2022/08/11 13:20:28;;;;;;;2.47;1.30;;;;;;;;;;5023064;28;20079;-80
2022/08/11 13:22:54;;;;;;;3.05;1.40;;;;;;;;;;5023821;28;20032;-80
2022/08/11 13:25:20;;;;;;;1.73;1.20;;;;;;;;;;5023135;28;20072;-79
2022/08/11 13:27:46;;;;;;;1.92;1.00;;;;;;;;;;5024315;28;20040;-79
2022/08/11 13:32:56;;;;;;;6.30;1.40;;;;;;;;;;5032690;28;20402;-80
2022/08/11 13:35:21;;;;;;;2.22;1.20;;;;;;;;;;5045749;28;20025;-79
2022/08/11 13:37:47;;;;;;;3.20;1.20;;;;;;;;;;5047576;28;20032;-84
2022/08/11 13:40:13;;;;;;;3.28;1.20;;;;;;;;;;5031555;28;20083;-80
2022/08/11 13:42:38;;;;;;;2.40;1.30;;;;;;;;;;5027293;28;20047;-78
2022/08/11 13:45:06;;;;;;;2.00;1.20;;;;;;;;;;5068919;28;20036;-81
2022/08/11 13:47:32;;;;;;;4.05;1.30;;;;;;;;;;5027566;28;20126;-82
2022/08/11 13:49:57;;;;;;;5.05;1.42;;;;;;;;;;5031003;28;20068;-81
2022/08/11 13:52:23;;;;;;;4.15;1.50;;;;;;;;;;5039377;28;20038;-82
2022/08/11 13:54:52;;;;;;;4.00;1.50;;;;;;;;;;5030038;28;20027;-80
2022/08/11 13:57:18;;;;;;;3.30;1.30;;;;;;;;;;5045678;28;20433;-84
2022/08/11 13:59:44;;;;;;;1.95;1.17;;;;;;;;;;5015258;28;20104;-79
2022/08/11 14:02:14;;;;;;;3.08;1.10;;;;;;;;;;5044595;28;20032;-81
2022/08/11 14:04:41;;;;;;;3.78;1.40;;;;;;;;;;5030679;28;20074;-81
2022/08/11 14:07:08;;;;;;;2.22;1.48;;;;;;;;;;5067721;28;20041;-81
2022/08/11 14:09:37;;;;;;;2.33;1.55;;;;;;;;;;5037914;28;20032;-79
2022/08/11 14:14:57;;;;;;;3.55;1.20;;;;;;;;;;5064494;28;20033;-79
2022/08/11 14:17:23;;;;;;;3.75;1.42;;;;;;;;;;5049486;28;20060;-80
2022/08/11 14:19:49;;;;;;;4.30;1.73;;;;;;;;;;5056462;28;20033;-80
2022/08/11 14:22:15;;;;;;;3.53;1.60;;;;;;;;;;5021539;28;20517;-81
2022/08/11 14:24:41;;;;;;;5.55;1.83;;;;;;;;;;5045429;28;20033;-80
2022/08/11 14:27:08;;;;;;;4.43;1.40;;;;;;;;;;5024748;28;20476;-79
2022/08/11 14:29:37;;;;;;;2.53;1.40;;;;;;;;;;5020195;28;20117;-80
2022/08/11 14:32:03;;;;;;;2.55;1.48;;;;;;;;;;5050278;28;20442;-79
2022/08/11 14:34:29;;;;;;;3.72;1.52;;;;;;;;;;5021499;28;20025;-78
2022/08/11 14:36:58;;;;;;;4.22;1.75;;;;;;;;;;5040020;28;20089;-81
2022/08/11 14:39:27;;;;;;;3.03;1.70;;;;;;;;;;5018507;28;20021;-79
2022/08/11 14:47:40;;;;;;;2.38;1.45;;;;;;;;;;5032401;28;20037;-81
2022/08/11 14:50:07;;;;;;;3.42;1.70;;;;;;;;;;5023095;28;20039;-81
2022/08/11 14:52:35;;;;;;;2.50;1.83;;;;;;;;;;5073596;28;20082;-81
2022/08/11 14:57:45;;;;;;;4.15;1.50;;;;;;;;;;5051535;28;20029;-80
2022/08/11 15:00:14;;;;;;;5.47;1.90;;;;;;;;;;5007055;28;20050;-80
2022/08/11 15:05:23;;;;;;;3.60;1.80;;;;;;;;;;5072791;28;20089;-80
2022/08/11 15:07:49;;;;;;;2.40;1.70;;;;;;;;;;5023139;28;20021;-82
2022/08/11 15:10:15;;;;;;;4.50;1.42;;;;;;;;;;5038815;28;20032;-81
2022/08/11 15:12:41;;;;;;;3.13;1.77;;;;;;;;;;5021417;28;20017;-80
2022/08/11 15:17:51;;;;;;;3.45;1.45;;;;;;;;;;5059755;28;20483;-79
2022/08/11 15:25:45;;;;;;;2.22;1.60;;;;;;;;;;5043706;28;20048;-80
2022/08/11 15:39:07;;;;;;;4.25;1.70;;;;;;;;;;5044245;28;20029;-80
2022/08/11 15:47:40;;;;;;;3.25;1.83;;;;;;;;;;5051392;28;20032;-81
2022/08/11 15:50:05;;;;;;;4.68;1.67;;;;;;;;;;5046137;28;20048;-80
2022/08/11 15:52:32;;;;;;;3.97;2.20;;;;;;;;;;5040276;28;20029;-79
2022/08/11 15:55:00;;;;;;;4.32;1.73;;;;;;;;;;5010155;28;20039;-83
2022/08/11 16:05:19;;;;;;;3.40;2.08;;;;;;;;;;5055746;28;20032;-81
2022/08/11 16:07:47;;;;;;;5.00;2.22;;;;;;;;;;5007792;28;20399;-83
2022/08/11 16:10:20;;;;;;;4.95;1.80;;;;;;;;;;5047437;28;20021;-81
2022/08/11 16:18:18;;;;;;;2.97;1.70;;;;;;;;;;5047151;28;20037;-81
2022/08/11 16:20:43;;;;;;;4.65;1.92;;;;;;;;;;5044693;28;20029;-82
2022/08/11 16:23:09;;;;;;;4.32;2.00;;;;;;;;;;5025555;28;20033;-81
2022/08/11 16:25:36;;;;;;;7.85;2.10;;;;;;;;;;5054856;28;20024;-81
2022/08/11 16:28:06;;;;;;;3.97;2.03;;;;;;;;;;5045173;28;20044;-81
2022/08/11 16:30:36;;;;;;;4.25;2.40;;;;;;;;;;5044509;28;20789;-80
2022/08/11 16:33:05;;;;;;;4.82;2.25;;;;;;;;;;5075808;28;20058;-84
2022/08/11 16:38:35;;;;;;;6.97;2.30;;;;;;;;;;5054690;28;20057;-82
2022/08/11 16:41:02;;;;;;;6.75;2.35;;;;;;;;;;5031267;28;20052;-82
2022/08/11 16:47:02;;;;;;;5.18;2.85;;;;;;;;;;5039082;28;20033;-81
2022/08/11 16:49:05;;;;;;;6.80;2.67;;;;;;;;;;5054272;28;20523;-81
2022/08/11 16:51:30;;;;;;;5.13;2.35;;;;;;;;;;5029669;28;20483;-80
2022/08/11 16:53:56;;;;;;;6.20;2.67;;;;;;;;;;5057110;28;20113;-82
2022/08/11 16:56:26;;;;;;;6.60;2.85;;;;;;;;;;5065582;28;20095;-83
2022/08/11 17:01:41;;;;;;;3.53;2.53;;;;;;;;;;5050475;28;20499;-81
2022/08/11 17:16:05;;;;;;;5.03;2.85;;;;;;;;;;5059884;28;20356;-80
2022/08/11 17:17:57;;;;;;;5.82;3.70;;;;;;;;;;5035251;28;20056;-80
2022/08/11 17:20:23;;;;;;;10.07;3.67;;;;;;;;;;5030427;28;20383;-80
2022/08/11 17:25:33;;;;;;;7.22;4.32;;;;;;;;;;5049620;28;20414;-80
2022/08/11 17:27:58;;;;;;;10.07;5.18;;;;;;;;;;5045752;28;20031;-81
2022/08/11 17:35:27;;;;;;;11.63;5.22;;;;;;;;;;5047974;28;20033;-81
2022/08/11 17:35:53;;;;;;;9.73;4.35;;;;;;;;;;5030163;28;20029;-82
2022/08/11 17:38:19;;;;;;;7.97;4.80;;;;;;;;;;5023579;28;20017;-81
2022/08/11 17:49:19;;;;;;;12.20;5.10;;;;;;;;;;5037469;28;20654;-80
2022/08/11 17:59:57;;;;;;;10.27;5.20;;;;;;;;;;5042017;28;20040;-81
2022/08/11 18:05:18;;;;;;;10.13;4.97;;;;;;;;;;5048448;28;20037;-84
